sensor_id;sensor_type;location;lat;lon;timestamp;P1;durP1;ratioP1;P2;durP2;ratioP2
23676;SDS011;31493;49.058;12.190;2022-10-16T00:01:56;8.15;;;2.28;;
23676;SDS011;31493;49.058;12.190;2022-10-16T00:04:23;3.97;;;2.22;;
23676;SDS011;31493;49.058;12.190;2022-10-16T00:06:50;7.22;;;2.30;;
23676;SDS011;31493;49.058;12.190;2022-10-16T00:09:18;7.82;;;2.75;;
23676;SDS011;31493;49.058;12.190;2022-10-16T00:11:45;9.25;;;2.72;;
23676;SDS011;31493;49.058;12.190;2022-10-16T00:14:13;4.10;;;2.08;;
23676;SDS011;31493;49.058;12.190;2022-10-16T00:19:09;5.45;;;2.38;;
23676;SDS011;31493;49.058;12.190;2022-10-16T00:21:37;6.07;;;2.40;;
23676;SDS011;31493;49.058;12.190;2022-10-16T00:24:05;5.30;;;2.20;;
23676;SDS011;31493;49.058;12.190;2022-10-16T00:26:35;6.65;;;2.33;;
23676;SDS011;31493;49.058;12.190;2022-10-16T00:29:04;10.60;;;3.10;;
23676;SDS011;31493;49.058;12.190;2022-10-16T00:31:31;5.25;;;2.45;;
23676;SDS011;31493;49.058;12.190;2022-10-16T00:33:58;7.70;;;3.33;;
23676;SDS011;31493;49.058;12.190;2022-10-16T00:36:26;7.65;;;3.03;;
23676;SDS011;31493;49.058;12.190;2022-10-16T00:38:53;10.80;;;2.70;;
23676;SDS011;31493;49.058;12.190;2022-10-16T00:41:23;7.78;;;2.70;;
23676;SDS011;31493;49.058;12.190;2022-10-16T00:43:53;6.53;;;3.03;;
23676;SDS011;31493;49.058;12.190;2022-10-16T00:46:22;4.70;;;2.80;;
23676;SDS011;31493;49.058;12.190;2022-10-16T00:48:53;8.15;;;3.13;;
23676;SDS011;31493;49.058;12.190;2022-10-16T00:51:25;5.05;;;2.95;;
23676;SDS011;31493;49.058;12.190;2022-10-16T00:53:57;6.93;;;2.90;;
23676;SDS011;31493;49.058;12.190;2022-10-16T00:56:24;5.90;;;2.60;;
23676;SDS011;31493;49.058;12.190;2022-10-16T00:58:52;3.60;;;2.28;;
23676;SDS011;31493;49.058;12.190;2022-10-16T01:01:19;5.35;;;2.88;;
23676;SDS011;31493;49.058;12.190;2022-10-16T01:03:47;5.70;;;2.75;;
23676;SDS011;31493;49.058;12.190;2022-10-16T01:06:23;4.55;;;2.60;;
23676;SDS011;31493;49.058;12.190;2022-10-16T01:08:58;3.15;;;2.63;;
23676;SDS011;31493;49.058;12.190;2022-10-16T01:11:36;7.93;;;2.78;;
23676;SDS011;31493;49.058;12.190;2022-10-16T01:14:11;5.97;;;2.70;;
23676;SDS011;31493;49.058;12.190;2022-10-16T01:16:45;4.93;;;2.50;;
23676;SDS011;31493;49.058;12.190;2022-10-16T01:19:20;6.00;;;2.88;;
23676;SDS011;31493;49.058;12.190;2022-10-16T01:21:53;9.32;;;2.67;;
23676;SDS011;31493;49.058;12.190;2022-10-16T01:24:25;4.38;;;2.60;;
23676;SDS011;31493;49.058;12.190;2022-10-16T01:27:12;8.35;;;2.45;;
23676;SDS011;31493;49.058;12.190;2022-10-16T01:29:47;4.63;;;2.33;;
23676;SDS011;31493;49.058;12.190;2022-10-16T01:32:20;7.55;;;2.90;;
23676;SDS011;31493;49.058;12.190;2022-10-16T01:34:52;5.93;;;2.83;;
23676;SDS011;31493;49.058;12.190;2022-10-16T01:37:32;4.50;;;2.65;;
23676;SDS011;31493;49.058;12.190;2022-10-16T01:40:05;5.35;;;2.80;;
23676;SDS011;31493;49.058;12.190;2022-10-16T01:42:37;9.38;;;3.05;;
23676;SDS011;31493;49.058;12.190;2022-10-16T01:45:08;7.30;;;2.80;;
23676;SDS011;31493;49.058;12.190;2022-10-16T01:47:39;6.55;;;2.80;;
23676;SDS011;31493;49.058;12.190;2022-10-16T01:50:09;6.72;;;2.97;;
23676;SDS011;31493;49.058;12.190;2022-10-16T01:52:37;7.40;;;2.63;;
23676;SDS011;31493;49.058;12.190;2022-10-16T01:55:08;6.07;;;3.08;;
23676;SDS011;31493;49.058;12.190;2022-10-16T01:57:41;5.53;;;2.75;;
23676;SDS011;31493;49.058;12.190;2022-10-16T02:00:13;8.07;;;2.90;;
23676;SDS011;31493;49.058;12.190;2022-10-16T02:02:44;14.30;;;3.22;;
23676;SDS011;31493;49.058;12.190;2022-10-16T02:05:15;9.15;;;3.22;;
23676;SDS011;31493;49.058;12.190;2022-10-16T02:07:47;4.13;;;2.90;;
23676;SDS011;31493;49.058;12.190;2022-10-16T02:10:15;7.07;;;3.28;;
23676;SDS011;31493;49.058;12.190;2022-10-16T02:12:45;11.07;;;3.50;;
23676;SDS011;31493;49.058;12.190;2022-10-16T02:15:16;6.07;;;3.50;;
23676;SDS011;31493;49.058;12.190;2022-10-16T02:17:43;5.63;;;2.95;;
23676;SDS011;31493;49.058;12.190;2022-10-16T02:20:10;14.13;;;3.40;;
23676;SDS011;31493;49.058;12.190;2022-10-16T02:22:38;6.43;;;3.75;;
23676;SDS011;31493;49.058;12.190;2022-10-16T02:25:08;6.05;;;3.85;;
23676;SDS011;31493;49.058;12.190;2022-10-16T02:27:40;7.30;;;3.83;;
23676;SDS011;31493;49.058;12.190;2022-10-16T02:30:14;9.68;;;3.45;;
23676;SDS011;31493;49.058;12.190;2022-10-16T02:32:48;11.02;;;4.10;;
23676;SDS011;31493;49.058;12.190;2022-10-16T02:35:18;6.13;;;3.88;;
23676;SDS011;31493;49.058;12.190;2022-10-16T02:37:46;6.03;;;3.60;;
23676;SDS011;31493;49.058;12.190;2022-10-16T02:40:15;9.10;;;3.20;;
23676;SDS011;31493;49.058;12.190;2022-10-16T02:42:43;7.22;;;3.70;;
23676;SDS011;31493;49.058;12.190;2022-10-16T02:45:11;6.00;;;3.47;;
23676;SDS011;31493;49.058;12.190;2022-10-16T02:47:39;5.53;;;3.10;;
23676;SDS011;31493;49.058;12.190;2022-10-16T02:50:06;7.25;;;3.28;;
23676;SDS011;31493;49.058;12.190;2022-10-16T02:52:34;11.15;;;3.08;;
23676;SDS011;31493;49.058;12.190;2022-10-16T02:55:01;6.40;;;3.00;;
23676;SDS011;31493;49.058;12.190;2022-10-16T02:57:28;5.28;;;2.67;;
23676;SDS011;31493;49.058;12.190;2022-10-16T02:59:57;9.38;;;3.13;;
23676;SDS011;31493;49.058;12.190;2022-10-16T03:02:25;8.60;;;2.90;;
23676;SDS011;31493;49.058;12.190;2022-10-16T03:04:53;8.45;;;2.63;;
23676;SDS011;31493;49.058;12.190;2022-10-16T03:07:20;5.03;;;2.67;;
23676;SDS011;31493;49.058;12.190;2022-10-16T03:09:47;7.63;;;2.40;;
23676;SDS011;31493;49.058;12.190;2022-10-16T03:12:14;9.23;;;2.70;;
23676;SDS011;31493;49.058;12.190;2022-10-16T03:14:41;3.85;;;2.45;;
23676;SDS011;31493;49.058;12.190;2022-10-16T03:17:08;6.35;;;2.95;;
23676;SDS011;31493;49.058;12.190;2022-10-16T03:19:35;6.38;;;2.30;;
23676;SDS011;31493;49.058;12.190;2022-10-16T03:22:04;7.20;;;2.38;;
23676;SDS011;31493;49.058;12.190;2022-10-16T03:24:31;6.22;;;2.53;;
23676;SDS011;31493;49.058;12.190;2022-10-16T03:26:58;7.30;;;2.67;;
23676;SDS011;31493;49.058;12.190;2022-10-16T03:29:26;4.80;;;2.40;;
23676;SDS011;31493;49.058;12.190;2022-10-16T03:34:22;7.28;;;2.70;;
23676;SDS011;31493;49.058;12.190;2022-10-16T03:36:49;6.28;;;2.50;;
23676;SDS011;31493;49.058;12.190;2022-10-16T03:39:17;4.13;;;2.30;;
23676;SDS011;31493;49.058;12.190;2022-10-16T03:41:45;3.70;;;2.55;;
23676;SDS011;31493;49.058;12.190;2022-10-16T03:44:12;4.53;;;2.22;;
23676;SDS011;31493;49.058;12.190;2022-10-16T03:46:40;4.72;;;2.00;;
23676;SDS011;31493;49.058;12.190;2022-10-16T03:49:07;4.50;;;1.83;;
23676;SDS011;31493;49.058;12.190;2022-10-16T03:51:34;3.28;;;2.30;;
23676;SDS011;31493;49.058;12.190;2022-10-16T03:54:01;4.38;;;2.45;;
23676;SDS011;31493;49.058;12.190;2022-10-16T03:56:29;11.05;;;2.65;;
23676;SDS011;31493;49.058;12.190;2022-10-16T03:58:56;6.43;;;2.50;;
23676;SDS011;31493;49.058;12.190;2022-10-16T04:01:23;4.65;;;2.20;;
23676;SDS011;31493;49.058;12.190;2022-10-16T04:03:50;6.60;;;2.53;;
23676;SDS011;31493;49.058;12.190;2022-10-16T04:06:17;6.15;;;2.97;;
23676;SDS011;31493;49.058;12.190;2022-10-16T04:08:44;8.02;;;2.50;;
23676;SDS011;31493;49.058;12.190;2022-10-16T04:11:11;5.97;;;2.45;;
23676;SDS011;31493;49.058;12.190;2022-10-16T04:13:40;7.65;;;2.53;;
23676;SDS011;31493;49.058;12.190;2022-10-16T04:16:07;7.00;;;2.45;;
23676;SDS011;31493;49.058;12.190;2022-10-16T04:18:34;4.00;;;2.25;;
23676;SDS011;31493;49.058;12.190;2022-10-16T04:21:02;5.57;;;2.50;;
23676;SDS011;31493;49.058;12.190;2022-10-16T04:25:57;6.90;;;3.10;;
23676;SDS011;31493;49.058;12.190;2022-10-16T04:28:24;8.68;;;2.72;;
23676;SDS011;31493;49.058;12.190;2022-10-16T04:30:53;5.28;;;2.55;;
23676;SDS011;31493;49.058;12.190;2022-10-16T04:33:20;3.15;;;2.60;;
23676;SDS011;31493;49.058;12.190;2022-10-16T04:35:47;4.90;;;2.50;;
23676;SDS011;31493;49.058;12.190;2022-10-16T04:38:14;4.95;;;2.80;;
23676;SDS011;31493;49.058;12.190;2022-10-16T04:40:42;4.38;;;3.13;;
23676;SDS011;31493;49.058;12.190;2022-10-16T04:43:09;5.15;;;3.03;;
23676;SDS011;31493;49.058;12.190;2022-10-16T04:45:36;5.75;;;2.50;;
23676;SDS011;31493;49.058;12.190;2022-10-16T04:48:04;7.93;;;3.00;;
23676;SDS011;31493;49.058;12.190;2022-10-16T04:50:31;3.30;;;2.58;;
23676;SDS011;31493;49.058;12.190;2022-10-16T04:52:58;4.32;;;2.90;;
23676;SDS011;31493;49.058;12.190;2022-10-16T04:55:25;5.72;;;3.30;;
23676;SDS011;31493;49.058;12.190;2022-10-16T04:57:52;6.43;;;3.22;;
23676;SDS011;31493;49.058;12.190;2022-10-16T05:00:19;6.05;;;3.22;;
23676;SDS011;31493;49.058;12.190;2022-10-16T05:02:49;11.33;;;3.53;;
23676;SDS011;31493;49.058;12.190;2022-10-16T05:05:17;10.77;;;3.78;;
23676;SDS011;31493;49.058;12.190;2022-10-16T05:07:44;7.97;;;3.72;;
23676;SDS011;31493;49.058;12.190;2022-10-16T05:10:11;7.88;;;3.88;;
23676;SDS011;31493;49.058;12.190;2022-10-16T05:12:39;4.10;;;3.33;;
23676;SDS011;31493;49.058;12.190;2022-10-16T05:15:06;5.55;;;3.40;;
23676;SDS011;31493;49.058;12.190;2022-10-16T05:17:34;7.57;;;3.73;;
23676;SDS011;31493;49.058;12.190;2022-10-16T05:20:01;10.43;;;3.50;;
23676;SDS011;31493;49.058;12.190;2022-10-16T05:22:30;6.32;;;3.63;;
23676;SDS011;31493;49.058;12.190;2022-10-16T05:24:57;8.40;;;3.47;;
23676;SDS011;31493;49.058;12.190;2022-10-16T05:27:24;6.95;;;3.97;;
23676;SDS011;31493;49.058;12.190;2022-10-16T05:29:51;6.95;;;3.58;;
23676;SDS011;31493;49.058;12.190;2022-10-16T05:32:18;9.02;;;3.65;;
23676;SDS011;31493;49.058;12.190;2022-10-16T05:34:45;5.32;;;4.10;;
23676;SDS011;31493;49.058;12.190;2022-10-16T05:37:12;6.00;;;3.30;;
23676;SDS011;31493;49.058;12.190;2022-10-16T05:39:41;6.20;;;3.72;;
23676;SDS011;31493;49.058;12.190;2022-10-16T05:42:08;5.45;;;3.33;;
23676;SDS011;31493;49.058;12.190;2022-10-16T05:44:35;8.50;;;3.13;;
23676;SDS011;31493;49.058;12.190;2022-10-16T05:47:02;5.45;;;3.25;;
23676;SDS011;31493;49.058;12.190;2022-10-16T05:49:29;11.93;;;3.47;;
23676;SDS011;31493;49.058;12.190;2022-10-16T05:51:56;5.00;;;3.40;;
23676;SDS011;31493;49.058;12.190;2022-10-16T05:54:22;6.53;;;2.95;;
23676;SDS011;31493;49.058;12.190;2022-10-16T05:56:51;5.45;;;2.85;;
23676;SDS011;31493;49.058;12.190;2022-10-16T05:59:18;5.68;;;2.90;;
23676;SDS011;31493;49.058;12.190;2022-10-16T06:01:45;12.75;;;2.72;;
23676;SDS011;31493;49.058;12.190;2022-10-16T06:04:12;4.47;;;2.63;;
23676;SDS011;31493;49.058;12.190;2022-10-16T06:06:39;8.00;;;2.55;;
23676;SDS011;31493;49.058;12.190;2022-10-16T06:09:06;4.82;;;2.85;;
23676;SDS011;31493;49.058;12.190;2022-10-16T06:11:33;7.85;;;2.92;;
23676;SDS011;31493;49.058;12.190;2022-10-16T06:14:01;9.65;;;2.58;;
23676;SDS011;31493;49.058;12.190;2022-10-16T06:16:32;6.35;;;2.97;;
23676;SDS011;31493;49.058;12.190;2022-10-16T06:18:59;8.25;;;2.90;;
23676;SDS011;31493;49.058;12.190;2022-10-16T06:21:27;6.93;;;3.10;;
23676;SDS011;31493;49.058;12.190;2022-10-16T06:23:55;6.80;;;3.30;;
23676;SDS011;31493;49.058;12.190;2022-10-16T06:26:24;4.13;;;3.20;;
23676;SDS011;31493;49.058;12.190;2022-10-16T06:28:53;4.32;;;3.58;;
23676;SDS011;31493;49.058;12.190;2022-10-16T06:31:23;4.60;;;3.30;;
23676;SDS011;31493;49.058;12.190;2022-10-16T06:33:54;9.05;;;3.70;;
23676;SDS011;31493;49.058;12.190;2022-10-16T06:36:22;4.50;;;3.45;;
23676;SDS011;31493;49.058;12.190;2022-10-16T06:38:50;10.52;;;3.65;;
23676;SDS011;31493;49.058;12.190;2022-10-16T06:41:18;12.38;;;4.00;;
23676;SDS011;31493;49.058;12.190;2022-10-16T06:43:47;5.72;;;4.25;;
23676;SDS011;31493;49.058;12.190;2022-10-16T06:46:15;7.70;;;4.35;;
23676;SDS011;31493;49.058;12.190;2022-10-16T06:51:12;6.47;;;4.57;;
23676;SDS011;31493;49.058;12.190;2022-10-16T06:53:41;5.85;;;4.47;;
23676;SDS011;31493;49.058;12.190;2022-10-16T06:56:10;14.18;;;4.85;;
23676;SDS011;31493;49.058;12.190;2022-10-16T06:58:38;11.95;;;4.95;;
23676;SDS011;31493;49.058;12.190;2022-10-16T07:01:05;8.32;;;4.72;;
23676;SDS011;31493;49.058;12.190;2022-10-16T07:03:33;6.35;;;4.65;;
23676;SDS011;31493;49.058;12.190;2022-10-16T07:06:04;8.07;;;4.50;;
23676;SDS011;31493;49.058;12.190;2022-10-16T07:08:32;7.78;;;5.18;;
23676;SDS011;31493;49.058;12.190;2022-10-16T07:11:00;8.30;;;4.85;;
23676;SDS011;31493;49.058;12.190;2022-10-16T07:13:27;8.38;;;5.40;;
23676;SDS011;31493;49.058;12.190;2022-10-16T07:15:54;9.30;;;5.30;;
23676;SDS011;31493;49.058;12.190;2022-10-16T07:18:21;8.43;;;4.97;;
23676;SDS011;31493;49.058;12.190;2022-10-16T07:20:52;8.95;;;5.43;;
23676;SDS011;31493;49.058;12.190;2022-10-16T07:23:20;5.25;;;4.57;;
23676;SDS011;31493;49.058;12.190;2022-10-16T07:25:53;10.75;;;4.72;;
23676;SDS011;31493;49.058;12.190;2022-10-16T07:28:21;12.43;;;4.85;;
23676;SDS011;31493;49.058;12.190;2022-10-16T07:30:48;8.63;;;4.38;;
23676;SDS011;31493;49.058;12.190;2022-10-16T07:33:15;6.47;;;4.22;;
23676;SDS011;31493;49.058;12.190;2022-10-16T07:35:49;5.25;;;4.22;;
23676;SDS011;31493;49.058;12.190;2022-10-16T07:38:16;6.75;;;4.80;;
23676;SDS011;31493;49.058;12.190;2022-10-16T07:40:45;5.40;;;4.18;;
23676;SDS011;31493;49.058;12.190;2022-10-16T07:43:13;5.65;;;4.10;;
23676;SDS011;31493;49.058;12.190;2022-10-16T07:45:46;9.20;;;4.13;;
23676;SDS011;31493;49.058;12.190;2022-10-16T07:48:15;5.38;;;3.60;;
23676;SDS011;31493;49.058;12.190;2022-10-16T07:50:43;8.53;;;3.60;;
23676;SDS011;31493;49.058;12.190;2022-10-16T07:53:11;11.63;;;3.85;;
23676;SDS011;31493;49.058;12.190;2022-10-16T07:55:38;4.97;;;3.55;;
23676;SDS011;31493;49.058;12.190;2022-10-16T07:58:07;3.92;;;3.30;;
23676;SDS011;31493;49.058;12.190;2022-10-16T08:00:35;8.85;;;3.38;;
23676;SDS011;31493;49.058;12.190;2022-10-16T08:03:03;8.55;;;3.38;;
23676;SDS011;31493;49.058;12.190;2022-10-16T08:05:31;6.60;;;3.45;;
23676;SDS011;31493;49.058;12.190;2022-10-16T08:07:59;7.45;;;3.60;;
23676;SDS011;31493;49.058;12.190;2022-10-16T08:10:26;6.88;;;3.10;;
23676;SDS011;31493;49.058;12.190;2022-10-16T08:12:54;10.23;;;3.90;;
23676;SDS011;31493;49.058;12.190;2022-10-16T08:15:23;5.82;;;3.33;;
23676;SDS011;31493;49.058;12.190;2022-10-16T08:17:57;9.70;;;4.00;;
23676;SDS011;31493;49.058;12.190;2022-10-16T08:20:25;6.47;;;3.95;;
23676;SDS011;31493;49.058;12.190;2022-10-16T08:22:53;4.93;;;3.65;;
23676;SDS011;31493;49.058;12.190;2022-10-16T08:25:21;9.55;;;3.80;;
23676;SDS011;31493;49.058;12.190;2022-10-16T08:27:48;7.00;;;3.10;;
23676;SDS011;31493;49.058;12.190;2022-10-16T08:30:15;3.78;;;3.33;;
23676;SDS011;31493;49.058;12.190;2022-10-16T08:32:44;5.90;;;3.30;;
23676;SDS011;31493;49.058;12.190;2022-10-16T08:35:12;5.95;;;3.00;;
23676;SDS011;31493;49.058;12.190;2022-10-16T08:37:40;4.93;;;3.05;;
23676;SDS011;31493;49.058;12.190;2022-10-16T08:40:11;5.68;;;3.55;;
23676;SDS011;31493;49.058;12.190;2022-10-16T08:42:55;4.07;;;3.35;;
23676;SDS011;31493;49.058;12.190;2022-10-16T08:45:33;9.32;;;3.65;;
23676;SDS011;31493;49.058;12.190;2022-10-16T08:48:11;5.88;;;3.67;;
23676;SDS011;31493;49.058;12.190;2022-10-16T08:50:45;5.68;;;3.33;;
23676;SDS011;31493;49.058;12.190;2022-10-16T08:53:15;9.85;;;3.85;;
23676;SDS011;31493;49.058;12.190;2022-10-16T08:55:49;4.97;;;3.28;;
23676;SDS011;31493;49.058;12.190;2022-10-16T08:58:18;7.38;;;3.97;;
23676;SDS011;31493;49.058;12.190;2022-10-16T09:00:48;7.30;;;3.88;;
23676;SDS011;31493;49.058;12.190;2022-10-16T09:03:40;9.00;;;3.80;;
23676;SDS011;31493;49.058;12.190;2022-10-16T09:06:20;7.03;;;3.67;;
23676;SDS011;31493;49.058;12.190;2022-10-16T09:09:01;7.40;;;4.35;;
23676;SDS011;31493;49.058;12.190;2022-10-16T09:11:41;6.35;;;4.00;;
23676;SDS011;31493;49.058;12.190;2022-10-16T09:14:19;5.82;;;4.38;;
23676;SDS011;31493;49.058;12.190;2022-10-16T09:17:04;7.93;;;3.70;;
23676;SDS011;31493;49.058;12.190;2022-10-16T09:19:44;4.85;;;3.47;;
23676;SDS011;31493;49.058;12.190;2022-10-16T09:22:18;7.10;;;3.90;;
23676;SDS011;31493;49.058;12.190;2022-10-16T09:24:51;7.82;;;3.55;;
23676;SDS011;31493;49.058;12.190;2022-10-16T09:27:18;5.45;;;3.53;;
23676;SDS011;31493;49.058;12.190;2022-10-16T09:29:46;4.60;;;3.00;;
23676;SDS011;31493;49.058;12.190;2022-10-16T09:32:14;3.28;;;2.67;;
23676;SDS011;31493;49.058;12.190;2022-10-16T09:34:47;7.72;;;2.78;;
23676;SDS011;31493;49.058;12.190;2022-10-16T09:37:17;8.65;;;2.50;;
23676;SDS011;31493;49.058;12.190;2022-10-16T09:39:47;5.22;;;2.60;;
23676;SDS011;31493;49.058;12.190;2022-10-16T09:42:16;10.77;;;2.60;;
23676;SDS011;31493;49.058;12.190;2022-10-16T09:47:15;5.72;;;2.42;;
23676;SDS011;31493;49.058;12.190;2022-10-16T09:49:51;7.45;;;2.58;;
23676;SDS011;31493;49.058;12.190;2022-10-16T09:52:19;5.82;;;2.53;;
23676;SDS011;31493;49.058;12.190;2022-10-16T09:54:50;3.05;;;2.40;;
23676;SDS011;31493;49.058;12.190;2022-10-16T09:57:18;4.82;;;2.35;;
23676;SDS011;31493;49.058;12.190;2022-10-16T09:59:46;4.70;;;2.80;;
23676;SDS011;31493;49.058;12.190;2022-10-16T10:02:15;10.68;;;2.85;;
23676;SDS011;31493;49.058;12.190;2022-10-16T10:04:45;4.60;;;2.50;;
23676;SDS011;31493;49.058;12.190;2022-10-16T10:07:18;5.00;;;3.03;;
23676;SDS011;31493;49.058;12.190;2022-10-16T10:09:51;4.75;;;2.83;;
23676;SDS011;31493;49.058;12.190;2022-10-16T10:12:20;3.92;;;2.33;;
23676;SDS011;31493;49.058;12.190;2022-10-16T10:14:50;4.97;;;2.40;;
23676;SDS011;31493;49.058;12.190;2022-10-16T10:17:19;4.00;;;2.50;;
23676;SDS011;31493;49.058;12.190;2022-10-16T10:19:49;3.67;;;2.40;;
23676;SDS011;31493;49.058;12.190;2022-10-16T10:22:27;4.60;;;2.53;;
23676;SDS011;31493;49.058;12.190;2022-10-16T10:24:58;4.50;;;2.70;;
23676;SDS011;31493;49.058;12.190;2022-10-16T10:27:36;6.10;;;2.58;;
23676;SDS011;31493;49.058;12.190;2022-10-16T10:30:11;6.30;;;2.42;;
23676;SDS011;31493;49.058;12.190;2022-10-16T10:32:47;3.50;;;2.42;;
23676;SDS011;31493;49.058;12.190;2022-10-16T10:35:24;6.03;;;2.50;;
23676;SDS011;31493;49.058;12.190;2022-10-16T10:38:09;3.25;;;1.90;;
23676;SDS011;31493;49.058;12.190;2022-10-16T10:40:51;4.78;;;2.60;;
23676;SDS011;31493;49.058;12.190;2022-10-16T10:43:27;3.78;;;2.40;;
23676;SDS011;31493;49.058;12.190;2022-10-16T10:46:07;5.85;;;2.25;;
23676;SDS011;31493;49.058;12.190;2022-10-16T10:48:54;5.60;;;2.30;;
23676;SDS011;31493;49.058;12.190;2022-10-16T10:51:34;4.90;;;2.05;;
23676;SDS011;31493;49.058;12.190;2022-10-16T10:54:14;7.05;;;2.20;;
23676;SDS011;31493;49.058;12.190;2022-10-16T10:56:48;4.22;;;2.20;;
23676;SDS011;31493;49.058;12.190;2022-10-16T10:59:27;4.35;;;2.40;;
23676;SDS011;31493;49.058;12.190;2022-10-16T11:02:13;7.35;;;2.67;;
23676;SDS011;31493;49.058;12.190;2022-10-16T11:04:57;4.15;;;2.20;;
23676;SDS011;31493;49.058;12.190;2022-10-16T11:07:38;6.53;;;2.13;;
23676;SDS011;31493;49.058;12.190;2022-10-16T11:10:13;4.15;;;2.00;;
23676;SDS011;31493;49.058;12.190;2022-10-16T11:12:45;4.70;;;2.05;;
23676;SDS011;31493;49.058;12.190;2022-10-16T11:15:17;8.82;;;2.10;;
23676;SDS011;31493;49.058;12.190;2022-10-16T11:17:48;8.10;;;2.30;;
23676;SDS011;31493;49.058;12.190;2022-10-16T11:20:19;5.90;;;2.20;;
23676;SDS011;31493;49.058;12.190;2022-10-16T11:22:50;3.15;;;2.20;;
23676;SDS011;31493;49.058;12.190;2022-10-16T11:25:23;4.18;;;2.10;;
23676;SDS011;31493;49.058;12.190;2022-10-16T11:27:54;5.53;;;2.20;;
23676;SDS011;31493;49.058;12.190;2022-10-16T11:30:28;5.13;;;2.30;;
23676;SDS011;31493;49.058;12.190;2022-10-16T11:33:00;5.65;;;2.13;;
23676;SDS011;31493;49.058;12.190;2022-10-16T11:35:38;4.75;;;2.30;;
23676;SDS011;31493;49.058;12.190;2022-10-16T11:38:12;3.50;;;2.00;;
23676;SDS011;31493;49.058;12.190;2022-10-16T11:40:47;3.78;;;1.95;;
23676;SDS011;31493;49.058;12.190;2022-10-16T11:43:20;4.50;;;1.98;;
23676;SDS011;31493;49.058;12.190;2022-10-16T11:45:54;4.72;;;2.08;;
23676;SDS011;31493;49.058;12.190;2022-10-16T11:48:25;4.63;;;2.30;;
23676;SDS011;31493;49.058;12.190;2022-10-16T11:51:00;5.28;;;2.10;;
23676;SDS011;31493;49.058;12.190;2022-10-16T11:53:38;3.47;;;2.00;;
23676;SDS011;31493;49.058;12.190;2022-10-16T11:56:12;4.10;;;1.98;;
23676;SDS011;31493;49.058;12.190;2022-10-16T11:58:45;2.67;;;2.03;;
23676;SDS011;31493;49.058;12.190;2022-10-16T12:01:22;3.50;;;2.00;;
23676;SDS011;31493;49.058;12.190;2022-10-16T12:04:01;6.25;;;2.00;;
23676;SDS011;31493;49.058;12.190;2022-10-16T12:06:42;8.05;;;2.10;;
23676;SDS011;31493;49.058;12.190;2022-10-16T12:09:15;3.17;;;1.70;;
23676;SDS011;31493;49.058;12.190;2022-10-16T12:11:49;2.58;;;1.75;;
23676;SDS011;31493;49.058;12.190;2022-10-16T12:14:36;4.15;;;2.10;;
23676;SDS011;31493;49.058;12.190;2022-10-16T12:19:59;4.05;;;2.00;;
23676;SDS011;31493;49.058;12.190;2022-10-16T12:22:27;5.13;;;1.92;;
23676;SDS011;31493;49.058;12.190;2022-10-16T12:24:56;7.65;;;2.03;;
23676;SDS011;31493;49.058;12.190;2022-10-16T12:27:27;6.65;;;1.80;;
23676;SDS011;31493;49.058;12.190;2022-10-16T12:29:57;4.35;;;1.77;;
23676;SDS011;31493;49.058;12.190;2022-10-16T12:32:32;2.90;;;1.90;;
23676;SDS011;31493;49.058;12.190;2022-10-16T12:35:01;3.50;;;2.00;;
23676;SDS011;31493;49.058;12.190;2022-10-16T12:37:31;8.95;;;2.05;;
23676;SDS011;31493;49.058;12.190;2022-10-16T12:39:59;5.55;;;1.80;;
23676;SDS011;31493;49.058;12.190;2022-10-16T12:42:40;4.45;;;2.05;;
23676;SDS011;31493;49.058;12.190;2022-10-16T12:45:22;4.15;;;1.92;;
23676;SDS011;31493;49.058;12.190;2022-10-16T12:47:52;10.43;;;1.88;;
23676;SDS011;31493;49.058;12.190;2022-10-16T12:50:23;3.05;;;1.77;;
23676;SDS011;31493;49.058;12.190;2022-10-16T12:52:56;3.83;;;1.90;;
23676;SDS011;31493;49.058;12.190;2022-10-16T12:55:23;5.53;;;2.08;;
23676;SDS011;31493;49.058;12.190;2022-10-16T12:57:58;2.60;;;1.90;;
23676;SDS011;31493;49.058;12.190;2022-10-16T13:00:36;5.63;;;2.08;;
23676;SDS011;31493;49.058;12.190;2022-10-16T13:06:15;2.22;;;1.65;;
23676;SDS011;31493;49.058;12.190;2022-10-16T13:11:57;5.57;;;2.10;;
23676;SDS011;31493;49.058;12.190;2022-10-16T13:14:52;2.55;;;2.03;;
23676;SDS011;31493;49.058;12.190;2022-10-16T13:17:42;5.40;;;2.10;;
23676;SDS011;31493;49.058;12.190;2022-10-16T13:20:17;4.65;;;2.13;;
23676;SDS011;31493;49.058;12.190;2022-10-16T13:22:51;4.68;;;1.90;;
23676;SDS011;31493;49.058;12.190;2022-10-16T13:25:31;2.53;;;1.90;;
23676;SDS011;31493;49.058;12.190;2022-10-16T13:28:08;1.83;;;1.70;;
23676;SDS011;31493;49.058;12.190;2022-10-16T13:30:40;6.00;;;1.95;;
23676;SDS011;31493;49.058;12.190;2022-10-16T13:33:12;5.82;;;1.85;;
23676;SDS011;31493;49.058;12.190;2022-10-16T13:35:47;3.65;;;1.67;;
23676;SDS011;31493;49.058;12.190;2022-10-16T13:38:24;6.20;;;1.80;;
23676;SDS011;31493;49.058;12.190;2022-10-16T13:40:54;3.63;;;2.10;;
23676;SDS011;31493;49.058;12.190;2022-10-16T13:43:23;3.13;;;1.67;;
23676;SDS011;31493;49.058;12.190;2022-10-16T13:45:56;2.55;;;1.95;;
23676;SDS011;31493;49.058;12.190;2022-10-16T13:48:25;4.20;;;2.00;;
23676;SDS011;31493;49.058;12.190;2022-10-16T13:50:59;4.13;;;2.00;;
23676;SDS011;31493;49.058;12.190;2022-10-16T13:53:32;6.28;;;1.90;;
23676;SDS011;31493;49.058;12.190;2022-10-16T13:56:02;4.85;;;1.98;;
23676;SDS011;31493;49.058;12.190;2022-10-16T13:58:30;3.60;;;2.08;;
23676;SDS011;31493;49.058;12.190;2022-10-16T14:00:59;3.22;;;1.85;;
23676;SDS011;31493;49.058;12.190;2022-10-16T14:03:28;2.53;;;1.63;;
23676;SDS011;31493;49.058;12.190;2022-10-16T14:05:58;3.25;;;1.75;;
23676;SDS011;31493;49.058;12.190;2022-10-16T14:08:28;6.28;;;1.80;;
23676;SDS011;31493;49.058;12.190;2022-10-16T14:10:57;7.07;;;2.30;;
23676;SDS011;31493;49.058;12.190;2022-10-16T14:13:28;8.00;;;2.20;;
23676;SDS011;31493;49.058;12.190;2022-10-16T14:15:59;2.63;;;1.90;;
23676;SDS011;31493;49.058;12.190;2022-10-16T14:18:32;10.00;;;2.10;;
23676;SDS011;31493;49.058;12.190;2022-10-16T14:21:03;4.57;;;1.90;;
23676;SDS011;31493;49.058;12.190;2022-10-16T14:23:33;3.83;;;2.10;;
23676;SDS011;31493;49.058;12.190;2022-10-16T14:26:12;2.65;;;1.75;;
23676;SDS011;31493;49.058;12.190;2022-10-16T14:28:41;3.45;;;2.08;;
23676;SDS011;31493;49.058;12.190;2022-10-16T14:31:27;5.45;;;1.95;;
23676;SDS011;31493;49.058;12.190;2022-10-16T14:33:57;4.13;;;2.05;;
23676;SDS011;31493;49.058;12.190;2022-10-16T14:36:25;3.33;;;2.10;;
23676;SDS011;31493;49.058;12.190;2022-10-16T14:38:56;4.38;;;1.88;;
23676;SDS011;31493;49.058;12.190;2022-10-16T14:41:27;5.15;;;2.20;;
23676;SDS011;31493;49.058;12.190;2022-10-16T14:43:55;7.50;;;2.15;;
23676;SDS011;31493;49.058;12.190;2022-10-16T14:48:58;5.72;;;1.98;;
23676;SDS011;31493;49.058;12.190;2022-10-16T14:51:29;5.53;;;2.10;;
23676;SDS011;31493;49.058;12.190;2022-10-16T14:53:56;5.40;;;1.70;;
23676;SDS011;31493;49.058;12.190;2022-10-16T14:56:24;3.47;;;1.63;;
23676;SDS011;31493;49.058;12.190;2022-10-16T14:58:53;6.00;;;2.17;;
23676;SDS011;31493;49.058;12.190;2022-10-16T15:01:20;10.13;;;2.00;;
23676;SDS011;31493;49.058;12.190;2022-10-16T15:03:49;5.53;;;2.00;;
23676;SDS011;31493;49.058;12.190;2022-10-16T15:06:18;2.42;;;2.20;;
23676;SDS011;31493;49.058;12.190;2022-10-16T15:08:45;5.55;;;2.35;;
23676;SDS011;31493;49.058;12.190;2022-10-16T15:11:12;6.18;;;2.28;;
23676;SDS011;31493;49.058;12.190;2022-10-16T15:13:41;7.35;;;2.30;;
23676;SDS011;31493;49.058;12.190;2022-10-16T15:16:09;7.80;;;2.42;;
23676;SDS011;31493;49.058;12.190;2022-10-16T15:18:37;4.93;;;2.40;;